createdAt,value
2019-02-02T00:00:39.600Z,2.50
2019-02-02T00:03:11.522Z,2.40
2019-02-02T00:05:48.921Z,2.50
2019-02-02T00:08:22.360Z,2.50
2019-02-02T00:10:53.320Z,2.50
2019-02-02T00:13:24.123Z,2.60
2019-02-02T00:15:55.081Z,2.60
2019-02-02T00:18:25.760Z,2.60
2019-02-02T00:20:57.526Z,2.60
2019-02-02T00:23:28.566Z,2.60
2019-02-02T00:25:59.646Z,2.70
2019-02-02T00:28:31.085Z,2.70
2019-02-02T00:31:02.320Z,2.70
2019-02-02T00:33:33.165Z,2.70
2019-02-02T00:36:04.205Z,2.70
2019-02-02T00:38:36.735Z,2.70
2019-02-02T00:41:08.605Z,2.80
2019-02-02T00:43:39.546Z,2.80
2019-02-02T00:46:11.026Z,2.80
2019-02-02T00:48:42.066Z,2.80
2019-02-02T00:51:12.913Z,2.90
2019-02-02T00:53:43.546Z,2.90
2019-02-02T00:56:15.705Z,2.90
2019-02-02T00:58:47.185Z,2.90
2019-02-02T01:01:18.145Z,2.90
2019-02-02T01:03:49.587Z,2.90
2019-02-02T01:06:20.466Z,2.90
2019-02-02T01:08:51.227Z,3.00
2019-02-02T01:11:22.065Z,3.00
2019-02-02T01:13:53.002Z,3.00
2019-02-02T01:16:23.985Z,3.00
2019-02-02T01:18:54.825Z,3.10
2019-02-02T01:21:26.227Z,3.10
2019-02-02T01:23:57.185Z,3.10
2019-02-02T01:26:27.945Z,3.10
2019-02-02T01:28:59.987Z,3.10
2019-02-02T01:31:31.065Z,3.10
2019-02-02T01:34:01.987Z,3.20
2019-02-02T01:36:33.905Z,3.20
2019-02-02T01:39:07.707Z,3.20
2019-02-02T01:41:38.585Z,3.20
2019-02-02T01:44:10.145Z,3.20
2019-02-02T01:46:41.028Z,3.20
2019-02-02T01:49:11.787Z,3.20
2019-02-02T01:51:44.231Z,3.30
2019-02-02T01:54:14.904Z,3.30
2019-02-02T01:56:46.225Z,3.30
2019-02-02T01:59:17.097Z,3.30
2019-02-02T02:01:48.305Z,3.30
2019-02-02T02:04:19.305Z,3.30
2019-02-02T02:06:50.465Z,3.40
2019-02-02T02:09:21.225Z,3.40
2019-02-02T02:11:52.145Z,3.40
2019-02-02T02:14:22.945Z,3.40
2019-02-02T02:16:55.025Z,3.40
2019-02-02T02:19:25.745Z,3.40
2019-02-02T02:21:56.785Z,3.40
2019-02-02T02:24:27.627Z,3.50
2019-02-02T02:26:58.966Z,3.50
2019-02-02T02:29:29.648Z,3.50
2019-02-02T02:32:00.488Z,3.60
2019-02-02T02:34:31.186Z,3.60
2019-02-02T02:37:02.307Z,3.60
2019-02-02T02:39:33.287Z,3.60
2019-02-02T02:42:07.626Z,3.60
2019-02-02T02:44:38.649Z,3.60
2019-02-02T02:47:09.766Z,3.70
2019-02-02T02:49:42.407Z,3.70
2019-02-02T02:52:13.027Z,3.70
2019-02-02T02:54:43.948Z,3.70
2019-02-02T02:57:14.877Z,3.70
2019-02-02T02:59:45.597Z,3.70
2019-02-02T03:02:16.746Z,3.80
2019-02-02T03:04:47.765Z,3.80
2019-02-02T03:07:19.494Z,3.80
2019-02-02T03:09:51.884Z,3.80
2019-02-02T03:12:23.013Z,3.90
2019-02-02T03:14:54.076Z,3.90
2019-02-02T03:17:24.916Z,3.90
2019-02-02T03:19:55.719Z,4.00
2019-02-02T03:22:26.436Z,4.00
2019-02-02T03:24:57.288Z,4.00
2019-02-02T03:27:28.279Z,4.00
2019-02-02T03:29:59.117Z,4.10
2019-02-02T03:32:30.198Z,4.10
2019-02-02T03:35:00.997Z,4.20
2019-02-02T03:37:34.407Z,4.20
2019-02-02T03:40:07.876Z,4.20
2019-02-02T03:42:42.476Z,4.30
2019-02-02T03:45:14.753Z,4.30
2019-02-02T03:47:45.483Z,4.30
2019-02-02T03:50:16.861Z,4.30
2019-02-02T03:52:47.759Z,4.30
2019-02-02T03:55:19.053Z,4.40
2019-02-02T03:57:51.905Z,4.40
2019-02-02T04:00:23.513Z,4.40
2019-02-02T04:02:55.553Z,4.40
2019-02-02T04:05:28.254Z,4.50
2019-02-02T04:07:59.973Z,4.50
2019-02-02T04:10:31.285Z,4.60
2019-02-02T04:13:02.484Z,4.60
2019-02-02T04:15:33.804Z,4.60
2019-02-02T04:18:05.004Z,4.60
2019-02-02T04:20:37.405Z,4.70
2019-02-02T04:23:08.685Z,4.70
2019-02-02T04:25:39.926Z,4.80
2019-02-02T04:28:10.845Z,4.80
2019-02-02T04:30:41.888Z,4.80
2019-02-02T04:33:13.245Z,4.80
2019-02-02T04:35:44.564Z,4.90
2019-02-02T04:38:15.324Z,4.90
2019-02-02T04:40:46.764Z,4.90
2019-02-02T04:43:17.566Z,5.00
2019-02-02T04:45:48.764Z,5.00
2019-02-02T04:48:22.885Z,5.00
2019-02-02T04:50:55.765Z,5.10
2019-02-02T04:53:26.684Z,5.10
2019-02-02T04:55:57.926Z,5.10
2019-02-02T04:58:29.424Z,5.10
2019-02-02T05:01:00.223Z,5.10
2019-02-02T05:03:31.183Z,5.10
2019-02-02T05:06:02.667Z,5.10
2019-02-02T05:08:33.689Z,5.10
2019-02-02T05:11:05.343Z,5.10
2019-02-02T05:13:36.223Z,5.10
2019-02-02T05:16:07.910Z,5.10
2019-02-02T05:18:38.830Z,5.10
2019-02-02T05:21:09.721Z,5.10
2019-02-02T05:23:40.630Z,5.10
2019-02-02T05:26:11.670Z,5.20
2019-02-02T05:28:42.861Z,5.20
2019-02-02T05:31:13.869Z,5.20
2019-02-02T05:33:44.791Z,5.20
2019-02-02T05:36:17.349Z,5.20
2019-02-02T05:38:48.790Z,5.20
2019-02-02T05:41:20.349Z,5.30
2019-02-02T05:43:52.072Z,5.30
2019-02-02T05:46:23.486Z,5.30
2019-02-02T05:48:54.989Z,5.30
2019-02-02T05:51:27.380Z,5.30
2019-02-02T05:53:59.502Z,5.30
2019-02-02T05:56:31.723Z,5.40
2019-02-02T05:59:06.655Z,5.40
2019-02-02T06:01:38.576Z,5.40
2019-02-02T06:04:10.177Z,5.40
2019-02-02T06:06:42.815Z,5.40
2019-02-02T06:09:15.415Z,5.40
2019-02-02T06:11:48.175Z,5.50
2019-02-02T06:14:23.855Z,5.50
2019-02-02T06:16:56.975Z,5.50
2019-02-02T06:19:27.858Z,5.50
2019-02-02T06:21:59.935Z,5.40
2019-02-02T06:24:31.619Z,5.50
2019-02-02T06:27:03.857Z,5.50
2019-02-02T06:29:35.177Z,5.50
2019-02-02T06:32:11.930Z,5.50
2019-02-02T06:34:38.976Z,5.50
2019-02-02T06:37:09.975Z,5.50
2019-02-02T06:39:41.495Z,5.50
2019-02-02T06:42:12.336Z,5.50
2019-02-02T06:44:43.194Z,5.50
2019-02-02T06:47:14.695Z,5.50
2019-02-02T06:49:53.095Z,5.60
2019-02-02T06:52:25.215Z,5.60
2019-02-02T06:54:59.017Z,5.60
2019-02-02T06:57:30.104Z,5.60
2019-02-02T07:00:01.866Z,5.70
2019-02-02T07:02:33.543Z,5.60
2019-02-02T07:05:05.299Z,5.70
2019-02-02T07:07:36.655Z,5.70
2019-02-02T07:10:12.772Z,5.70
2019-02-02T07:12:52.415Z,5.70
2019-02-02T07:15:29.607Z,5.70
2019-02-02T07:18:04.296Z,5.80
2019-02-02T07:20:39.855Z,5.80
2019-02-02T07:23:18.695Z,5.80
2019-02-02T07:25:57.484Z,5.90
2019-02-02T07:28:33.856Z,5.80
2019-02-02T07:31:09.773Z,5.80
2019-02-02T07:33:42.095Z,5.90
2019-02-02T07:36:12.815Z,5.90
2019-02-02T07:38:44.936Z,5.90
2019-02-02T07:41:18.556Z,5.90
2019-02-02T07:43:52.197Z,5.90
2019-02-02T07:46:29.916Z,5.90
2019-02-02T07:49:03.075Z,5.90
2019-02-02T07:51:35.315Z,5.90
2019-02-02T07:54:10.116Z,5.90
2019-02-02T07:56:41.675Z,5.90
2019-02-02T07:59:13.435Z,5.90
2019-02-02T08:01:47.473Z,6.00
2019-02-02T08:04:20.436Z,6.00
2019-02-02T08:06:51.471Z,6.00
2019-02-02T08:09:22.965Z,6.10
2019-02-02T08:11:53.854Z,6.10
2019-02-02T08:14:24.756Z,6.10
2019-02-02T08:16:55.838Z,6.10
2019-02-02T08:19:27.278Z,6.10
2019-02-02T08:21:58.478Z,6.20
2019-02-02T08:24:29.635Z,6.20
2019-02-02T08:27:00.645Z,6.20
2019-02-02T08:29:32.955Z,6.20
2019-02-02T08:32:05.195Z,6.20
2019-02-02T08:34:41.755Z,6.20
2019-02-02T08:37:12.916Z,6.20
2019-02-02T08:39:47.356Z,6.30
2019-02-02T08:42:19.156Z,6.30
2019-02-02T08:44:52.677Z,6.30
2019-02-02T08:47:24.583Z,6.40
2019-02-02T08:49:55.557Z,6.40
2019-02-02T08:52:27.036Z,6.40
2019-02-02T08:54:59.679Z,6.50
2019-02-02T08:57:31.673Z,6.50
2019-02-02T09:00:04.076Z,6.50
2019-02-02T09:02:35.197Z,6.50
2019-02-02T09:05:07.404Z,6.50
2019-02-02T09:07:38.476Z,6.50
2019-02-02T09:10:14.245Z,6.60
2019-02-02T09:12:47.837Z,6.60
2019-02-02T09:15:19.798Z,6.60
2019-02-02T09:17:55.958Z,6.60
2019-02-02T09:20:28.156Z,6.60
2019-02-02T09:23:06.048Z,6.60
2019-02-02T09:25:32.085Z,6.60
2019-02-02T09:28:03.517Z,6.60
2019-02-02T09:30:36.996Z,6.60
2019-02-02T09:33:09.078Z,6.60
2019-02-02T09:35:40.237Z,6.60
2019-02-02T09:38:12.261Z,6.60
2019-02-02T09:40:43.552Z,6.60
2019-02-02T09:43:14.556Z,6.60
2019-02-02T09:45:45.316Z,6.60
2019-02-02T09:48:16.646Z,6.70
2019-02-02T09:50:47.517Z,6.70
2019-02-02T09:53:18.637Z,6.70
2019-02-02T09:55:55.672Z,6.70
2019-02-02T09:58:41.663Z,6.70
2019-02-02T10:01:30.257Z,6.70
2019-02-02T10:04:07.597Z,6.80
2019-02-02T10:06:38.593Z,6.80
2019-02-02T10:09:22.344Z,6.80
2019-02-02T10:11:54.957Z,6.80
2019-02-02T10:14:33.075Z,6.90
2019-02-02T10:17:08.192Z,6.90
2019-02-02T10:19:50.758Z,6.90
2019-02-02T10:22:23.567Z,6.90
2019-02-02T10:24:56.116Z,7.00
2019-02-02T10:27:30.676Z,6.90
2019-02-02T10:30:03.567Z,7.00
2019-02-02T10:32:34.477Z,7.00
2019-02-02T10:35:06.157Z,7.00
2019-02-02T10:37:37.397Z,7.00
2019-02-02T10:40:10.832Z,7.00
2019-02-02T10:42:41.757Z,7.10
2019-02-02T10:45:13.196Z,7.10
2019-02-02T10:47:45.048Z,7.10
2019-02-02T10:50:16.997Z,7.10
2019-02-02T10:52:48.197Z,7.10
2019-02-02T10:55:21.212Z,7.20
2019-02-02T10:57:52.596Z,7.20
2019-02-02T11:00:28.997Z,7.30
2019-02-02T11:03:00.144Z,7.30
2019-02-02T11:05:31.724Z,7.30
2019-02-02T11:08:02.957Z,7.40
2019-02-02T11:10:40.843Z,7.40
2019-02-02T11:13:12.613Z,7.40
2019-02-02T11:15:43.547Z,7.50
2019-02-02T11:18:14.790Z,7.50
2019-02-02T11:20:45.693Z,7.50
2019-02-02T11:23:23.741Z,7.60
2019-02-02T11:26:07.093Z,7.60
2019-02-02T11:28:58.992Z,7.70
2019-02-02T11:31:34.611Z,7.90
2019-02-02T11:34:06.816Z,8.00
2019-02-02T11:36:39.451Z,8.10
2019-02-02T11:39:11.966Z,8.20
2019-02-02T11:41:42.812Z,8.30
2019-02-02T11:44:14.051Z,8.40
2019-02-02T11:46:44.327Z,8.40
2019-02-02T11:49:15.150Z,8.40
2019-02-02T11:51:45.528Z,8.50
2019-02-02T11:54:25.546Z,8.60
2019-02-02T11:57:03.064Z,8.80
2019-02-02T11:59:41.995Z,8.90
2019-02-02T12:02:19.741Z,8.90
2019-02-02T12:05:09.396Z,8.90
2019-02-02T12:07:42.106Z,8.90
2019-02-02T12:10:20.141Z,9.00
2019-02-02T12:13:05.494Z,9.00
2019-02-02T12:15:38.169Z,9.10
2019-02-02T12:18:13.418Z,9.30
2019-02-02T12:20:49.611Z,9.40
2019-02-02T12:23:33.101Z,9.50
2019-02-02T12:26:11.867Z,9.70
2019-02-02T12:28:43.023Z,10.00
2019-02-02T12:31:13.651Z,10.10
2019-02-02T12:33:44.937Z,10.10
2019-02-02T12:36:15.459Z,10.20
2019-02-02T12:38:49.972Z,10.10
2019-02-02T12:41:20.460Z,10.00
2019-02-02T12:43:52.277Z,9.90
2019-02-02T12:46:22.979Z,9.80
2019-02-02T12:48:53.357Z,9.70
2019-02-02T12:51:23.855Z,9.60
2019-02-02T12:53:55.826Z,9.50
2019-02-02T12:56:35.251Z,9.50
2019-02-02T12:59:06.787Z,9.50
2019-02-02T13:01:37.595Z,9.50
2019-02-02T13:04:08.709Z,9.50
2019-02-02T13:06:40.038Z,9.50
2019-02-02T13:09:11.905Z,9.50
2019-02-02T13:11:43.345Z,9.50
2019-02-02T13:14:14.689Z,9.50
2019-02-02T13:16:45.218Z,9.60
2019-02-02T13:19:16.183Z,9.70
2019-02-02T13:21:47.196Z,9.80
2019-02-02T13:24:17.901Z,9.90
2019-02-02T13:26:49.163Z,9.90
2019-02-02T13:29:19.677Z,9.90
2019-02-02T13:31:51.270Z,9.80
2019-02-02T13:34:21.584Z,9.80
2019-02-02T13:36:53.157Z,9.80
2019-02-02T13:39:23.685Z,9.80
2019-02-02T13:41:55.088Z,9.70
2019-02-02T13:44:26.580Z,9.70
2019-02-02T13:46:57.791Z,9.70
2019-02-02T13:49:29.209Z,9.70
2019-02-02T13:52:01.629Z,9.60
2019-02-02T13:54:33.753Z,9.60
2019-02-02T13:57:05.532Z,9.60
2019-02-02T13:59:35.831Z,9.50
2019-02-02T14:02:07.476Z,9.50
2019-02-02T14:04:38.496Z,9.50
2019-02-02T14:07:17.878Z,9.50
2019-02-02T14:09:41.567Z,9.50
2019-02-02T14:12:12.943Z,9.50
2019-02-02T14:14:44.368Z,9.50
2019-02-02T14:17:14.862Z,9.50
2019-02-02T14:19:46.055Z,9.50
2019-02-02T14:22:19.529Z,9.40
2019-02-02T14:25:00.511Z,9.40
2019-02-02T14:27:44.441Z,9.40
2019-02-02T14:30:26.342Z,9.40
2019-02-02T14:33:21.192Z,9.40
2019-02-02T14:35:57.538Z,9.40
2019-02-02T14:38:34.201Z,9.30
2019-02-02T14:41:40.651Z,9.30
2019-02-02T14:44:18.589Z,9.30
2019-02-02T14:47:28.790Z,9.30
2019-02-02T14:50:23.468Z,9.20
2019-02-02T14:53:10.702Z,9.20
2019-02-02T14:55:49.589Z,9.20
2019-02-02T14:58:38.987Z,9.20
2019-02-02T15:01:18.069Z,9.20
2019-02-02T15:04:10.534Z,9.20
2019-02-02T15:06:42.016Z,9.20
2019-02-02T15:09:34.205Z,9.20
2019-02-02T15:12:30.039Z,9.20
2019-02-02T15:15:13.853Z,9.20
2019-02-02T15:17:53.001Z,9.20
2019-02-02T15:20:55.710Z,9.20
2019-02-02T15:23:28.802Z,9.20
2019-02-02T15:26:07.114Z,9.20
2019-02-02T15:28:40.092Z,9.10
2019-02-02T15:31:11.384Z,9.20
2019-02-02T15:33:56.887Z,9.20
2019-02-02T15:36:49.691Z,9.20
2019-02-02T15:39:21.576Z,9.20
2019-02-02T15:41:53.216Z,9.20
2019-02-02T15:44:23.866Z,9.20
2019-02-02T15:46:56.427Z,9.20
2019-02-02T15:49:27.058Z,9.10
2019-02-02T15:51:57.767Z,9.10
2019-02-02T15:54:28.380Z,9.10
2019-02-02T15:56:59.214Z,9.20
2019-02-02T15:59:29.906Z,9.10
2019-02-02T16:02:00.555Z,9.10
2019-02-02T16:04:30.819Z,9.10
2019-02-02T16:07:01.444Z,9.20
2019-02-02T16:09:42.755Z,9.20
2019-02-02T16:12:20.946Z,9.10
2019-02-02T16:15:03.054Z,9.10
2019-02-02T16:17:40.359Z,9.10
2019-02-02T16:20:19.302Z,9.10
2019-02-02T16:22:52.259Z,9.10
2019-02-02T16:25:30.828Z,9.10
2019-02-02T16:28:03.897Z,9.10
2019-02-02T16:30:35.552Z,9.10
2019-02-02T16:33:06.322Z,9.10
2019-02-02T16:35:36.781Z,9.20
2019-02-02T16:38:11.424Z,9.20
2019-02-02T16:40:42.105Z,9.30
2019-02-02T16:43:13.044Z,9.30
2019-02-02T16:45:43.857Z,9.30
2019-02-02T16:48:15.031Z,9.20
2019-02-02T16:50:45.778Z,9.20
2019-02-02T16:53:17.504Z,9.10
2019-02-02T16:55:48.184Z,9.10
2019-02-02T16:58:19.186Z,9.10
2019-02-02T17:00:50.153Z,9.10
2019-02-02T17:03:21.105Z,9.00
2019-02-02T17:05:52.424Z,9.00
2019-02-02T17:08:23.793Z,9.00
2019-02-02T17:10:55.664Z,9.10
2019-02-02T17:13:29.281Z,9.10
2019-02-02T17:20:43.378Z,9.10
2019-02-02T17:30:20.549Z,9.00
2019-02-02T17:32:59.225Z,9.00
2019-02-02T17:35:35.304Z,9.00
2019-02-02T17:38:10.030Z,9.00
2019-02-02T17:40:43.104Z,9.00
2019-02-02T17:43:16.540Z,9.10
2019-02-02T17:45:51.819Z,9.10
2019-02-02T17:48:24.940Z,9.10
2019-02-02T17:50:57.461Z,9.10
2019-02-02T17:53:30.336Z,9.10
2019-02-02T17:56:02.738Z,9.00
2019-02-02T17:58:39.652Z,9.00
2019-02-02T18:01:09.990Z,8.90
2019-02-02T18:03:42.801Z,9.00
2019-02-02T18:06:15.291Z,9.00
2019-02-02T18:08:48.161Z,9.00
2019-02-02T18:11:21.093Z,8.90
2019-02-02T18:13:54.439Z,8.80
2019-02-02T18:16:28.433Z,8.80
2019-02-02T18:19:01.213Z,8.80
2019-02-02T18:21:33.993Z,8.70
2019-02-02T18:24:07.090Z,8.80
2019-02-02T18:26:39.972Z,8.70
2019-02-02T18:29:12.952Z,8.70
2019-02-02T18:31:46.832Z,8.70
2019-02-02T18:34:19.396Z,8.70
2019-02-02T18:36:52.289Z,8.60
2019-02-02T18:39:24.945Z,8.60
2019-02-02T18:41:57.558Z,8.60
2019-02-02T18:44:30.429Z,8.60
2019-02-02T18:47:03.593Z,8.60
2019-02-02T18:49:36.395Z,8.50
2019-02-02T18:52:09.118Z,8.50
2019-02-02T18:54:42.046Z,8.50
2019-02-02T18:57:14.289Z,8.50
2019-02-02T18:59:47.358Z,8.50
2019-02-02T19:02:20.561Z,8.50
2019-02-02T19:05:03.208Z,8.50
2019-02-02T19:07:27.397Z,8.50
2019-02-02T19:09:59.992Z,8.40
2019-02-02T19:12:32.976Z,8.40
2019-02-02T19:15:05.773Z,8.40
2019-02-02T19:17:40.428Z,8.30
2019-02-02T19:20:17.022Z,8.40
2019-02-02T19:22:58.844Z,8.30
2019-02-02T19:25:37.658Z,8.30
2019-02-02T19:28:38.205Z,8.30
2019-02-02T19:31:13.947Z,8.30
2019-02-02T19:34:03.201Z,8.20
2019-02-02T19:36:48.544Z,8.20
2019-02-02T19:39:32.584Z,8.20
2019-02-02T19:42:04.684Z,8.20
2019-02-02T19:44:42.862Z,8.20
2019-02-02T19:47:27.002Z,8.20
2019-02-02T19:50:12.245Z,8.20
2019-02-02T19:52:57.693Z,8.20
2019-02-02T19:55:46.458Z,8.10
2019-02-02T19:58:29.059Z,8.10
2019-02-02T20:01:23.250Z,8.10
2019-02-02T20:04:07.200Z,8.10
2019-02-02T20:06:50.136Z,8.10
2019-02-02T20:09:35.103Z,8.10
2019-02-02T20:12:23.691Z,8.10
2019-02-02T20:15:05.920Z,8.10
2019-02-02T20:17:52.303Z,8.00
2019-02-02T20:20:37.599Z,8.00
2019-02-02T20:23:21.549Z,8.00
2019-02-02T20:26:00.198Z,8.00
2019-02-02T20:28:39.595Z,8.00
2019-02-02T20:31:32.194Z,8.00
2019-02-02T20:34:17.144Z,8.00
2019-02-02T20:37:00.344Z,8.00
2019-02-02T20:39:37.106Z,8.00
2019-02-02T20:42:21.923Z,8.00
2019-02-02T20:45:10.024Z,8.00
2019-02-02T20:47:56.877Z,8.00
2019-02-02T20:50:38.664Z,8.00
2019-02-02T20:53:17.013Z,8.00
2019-02-02T20:55:57.473Z,8.00
2019-02-02T20:58:41.435Z,8.00
2019-02-02T21:01:21.072Z,8.00
2019-02-02T21:04:11.665Z,8.00
2019-02-02T21:06:47.184Z,8.00
2019-02-02T21:09:22.898Z,8.00
2019-02-02T21:11:58.624Z,8.00
2019-02-02T21:14:42.937Z,8.00
2019-02-02T21:17:17.121Z,8.00
2019-02-02T21:19:54.219Z,8.10
2019-02-02T21:22:25.313Z,8.10
2019-02-02T21:24:58.815Z,8.10
2019-02-02T21:27:32.864Z,8.10
2019-02-02T21:30:08.504Z,8.20
2019-02-02T21:32:48.796Z,8.20
2019-02-02T21:35:28.226Z,8.10
2019-02-02T21:38:05.692Z,8.10
2019-02-02T21:40:47.690Z,8.10
2019-02-02T21:43:33.274Z,8.10
2019-02-02T21:46:19.282Z,8.00
2019-02-02T21:49:02.904Z,8.00
2019-02-02T21:51:48.684Z,8.00
2019-02-02T21:54:25.915Z,8.00
2019-02-02T21:57:02.536Z,7.90
2019-02-02T21:59:48.666Z,7.90
2019-02-02T22:02:30.413Z,8.00
2019-02-02T22:05:16.586Z,8.00
2019-02-02T22:07:56.068Z,8.00
2019-02-02T22:10:28.024Z,7.90
2019-02-02T22:13:00.346Z,7.90
2019-02-02T22:15:31.939Z,7.90
2019-02-02T22:18:02.945Z,7.90
2019-02-02T22:20:34.665Z,7.80
2019-02-02T22:23:11.264Z,7.80
2019-02-02T22:25:43.342Z,7.80
2019-02-02T22:28:14.553Z,7.70
2019-02-02T22:30:47.025Z,7.70
2019-02-02T22:33:17.824Z,7.60
2019-02-02T22:35:48.584Z,7.60
2019-02-02T22:38:20.113Z,7.60
2019-02-02T22:40:50.984Z,7.60
2019-02-02T22:43:21.984Z,7.60
2019-02-02T22:45:52.665Z,7.60
2019-02-02T22:48:23.704Z,7.60
2019-02-02T22:50:54.594Z,7.60
2019-02-02T22:53:25.759Z,7.60
2019-02-02T22:55:57.585Z,7.50
2019-02-02T22:58:29.175Z,7.50
2019-02-02T23:01:15.291Z,7.50
2019-02-02T23:03:53.105Z,7.50
2019-02-02T23:06:55.111Z,7.50
2019-02-02T23:10:04.409Z,7.50
2019-02-02T23:13:12.996Z,7.50
2019-02-02T23:16:13.295Z,7.50
2019-02-02T23:18:46.751Z,7.50
2019-02-02T23:21:17.152Z,7.50
2019-02-02T23:23:48.060Z,7.50
2019-02-02T23:26:23.131Z,7.50
2019-02-02T23:28:54.020Z,7.60
2019-02-02T23:31:25.421Z,7.50
2019-02-02T23:33:57.748Z,7.60
2019-02-02T23:36:28.619Z,7.70
2019-02-02T23:38:59.468Z,7.60
2019-02-02T23:41:30.581Z,7.60
2019-02-02T23:44:04.103Z,7.60
2019-02-02T23:46:35.260Z,7.60
2019-02-02T23:49:06.300Z,7.50
2019-02-02T23:51:37.090Z,7.40
2019-02-02T23:54:07.700Z,7.40
2019-02-02T23:56:38.900Z,7.40
2019-02-02T23:59:09.584Z,7.30
